sensor_id;sensor_type;location;lat;lon;timestamp;pressure;altitude;pressure_sealevel;temperature;humidity
33486;BME280;19824;52.098;5.004;2023-03-17T06:02:29;100699.16;;;10.94;61.30
33486;BME280;19824;52.098;5.004;2023-03-17T06:05:13;100700.50;;;10.98;61.46
33486;BME280;19824;52.098;5.004;2023-03-17T06:07:43;100700.09;;;11.03;61.52
33486;BME280;19824;52.098;5.004;2023-03-17T06:10:23;100699.69;;;10.98;61.83
33486;BME280;19824;52.098;5.004;2023-03-17T06:12:53;100708.75;;;11.05;61.19
33486;BME280;19824;52.098;5.004;2023-03-17T06:15:31;100695.28;;;11.06;60.71
33486;BME280;19824;52.098;5.004;2023-03-17T06:18:05;100708.91;;;11.03;61.54
33486;BME280;19824;52.098;5.004;2023-03-17T06:20:42;100710.75;;;11.03;61.61
33486;BME280;19824;52.098;5.004;2023-03-17T06:23:12;100716.44;;;11.08;60.98
33486;BME280;19824;52.098;5.004;2023-03-17T06:25:49;100706.78;;;11.07;61.56
33486;BME280;19824;52.098;5.004;2023-03-17T06:28:19;100708.91;;;11.03;61.00
33486;BME280;19824;52.098;5.004;2023-03-17T06:30:56;100695.81;;;11.10;60.86
33486;BME280;19824;52.098;5.004;2023-03-17T06:33:29;100697.19;;;11.14;60.80
33486;BME280;19824;52.098;5.004;2023-03-17T06:36:07;100694.47;;;11.23;60.59
33486;BME280;19824;52.098;5.004;2023-03-17T06:38:44;100705.50;;;11.28;60.54
33486;BME280;19824;52.098;5.004;2023-03-17T06:41:15;100705.72;;;11.35;61.15
33486;BME280;19824;52.098;5.004;2023-03-17T06:43:51;100708.19;;;11.46;60.81
33486;BME280;19824;52.098;5.004;2023-03-17T06:46:21;100708.97;;;11.56;60.23
33486;BME280;19824;52.098;5.004;2023-03-17T06:49:01;100709.94;;;11.89;60.24
33486;BME280;19824;52.098;5.004;2023-03-17T06:51:34;100702.59;;;12.34;58.88
33486;BME280;19824;52.098;5.004;2023-03-17T06:54:11;100712.44;;;12.67;58.33
33486;BME280;19824;52.098;5.004;2023-03-17T06:56:41;100705.19;;;12.85;58.59
33486;BME280;19824;52.098;5.004;2023-03-17T06:59:19;100704.44;;;13.00;57.68
33486;BME280;19824;52.098;5.004;2023-03-17T07:01:55;100705.16;;;13.18;57.18
33486;BME280;19824;52.098;5.004;2023-03-17T07:04:28;100697.50;;;13.23;57.12
33486;BME280;19824;52.098;5.004;2023-03-17T07:07:05;100698.53;;;13.38;56.00
33486;BME280;19824;52.098;5.004;2023-03-17T07:09:42;100701.84;;;13.32;56.53
33486;BME280;19824;52.098;5.004;2023-03-17T07:12:13;100701.69;;;13.34;56.72
33486;BME280;19824;52.098;5.004;2023-03-17T07:14:50;100703.06;;;13.46;56.82
33486;BME280;19824;52.098;5.004;2023-03-17T07:17:20;100700.41;;;13.62;55.25
33486;BME280;19824;52.098;5.004;2023-03-17T07:20:00;100702.75;;;13.65;55.32
33486;BME280;19824;52.098;5.004;2023-03-17T07:22:36;100709.94;;;13.56;55.88
33486;BME280;19824;52.098;5.004;2023-03-17T07:25:07;100718.94;;;13.63;55.03
33486;BME280;19824;52.098;5.004;2023-03-17T07:27:45;100721.44;;;13.57;55.67
33486;BME280;19824;52.098;5.004;2023-03-17T07:30:15;100721.44;;;13.57;55.90
33486;BME280;19824;52.098;5.004;2023-03-17T07:32:52;100715.28;;;13.56;55.89
33486;BME280;19824;52.098;5.004;2023-03-17T07:35:25;100721.78;;;13.54;55.62
33486;BME280;19824;52.098;5.004;2023-03-17T07:38:03;100710.75;;;13.57;55.47
33486;BME280;19824;52.098;5.004;2023-03-17T07:40:34;100709.41;;;13.84;54.74
33486;BME280;19824;52.098;5.004;2023-03-17T07:43:11;100702.75;;;13.88;55.40
33486;BME280;19824;52.098;5.004;2023-03-17T07:45:42;100697.19;;;14.22;55.01
33486;BME280;19824;52.098;5.004;2023-03-17T07:48:19;100698.34;;;14.43;54.62
33486;BME280;19824;52.098;5.004;2023-03-17T07:50:59;100705.59;;;14.81;53.63
33486;BME280;19824;52.098;5.004;2023-03-17T07:53:29;100696.38;;;15.14;53.04
33486;BME280;19824;52.098;5.004;2023-03-17T07:56:07;100682.94;;;15.52;52.41
33486;BME280;19824;52.098;5.004;2023-03-17T07:58:37;100685.13;;;15.93;52.07
33486;BME280;19824;52.098;5.004;2023-03-17T08:01:14;100687.50;;;16.25;51.01
33486;BME280;19824;52.098;5.004;2023-03-17T08:03:44;100687.66;;;16.61;51.03
33486;BME280;19824;52.098;5.004;2023-03-17T08:06:24;100704.50;;;16.98;48.77
33486;BME280;19824;52.098;5.004;2023-03-17T08:08:54;100696.19;;;17.28;48.98
33486;BME280;19824;52.098;5.004;2023-03-17T08:11:32;100703.03;;;17.66;47.93
33486;BME280;19824;52.098;5.004;2023-03-17T08:14:03;100695.88;;;17.73;47.59
33486;BME280;19824;52.098;5.004;2023-03-17T08:16:39;100705.38;;;18.17;48.22
33486;BME280;19824;52.098;5.004;2023-03-17T08:19:10;100708.75;;;18.74;46.94
33486;BME280;19824;52.098;5.004;2023-03-17T08:21:50;100714.59;;;19.18;45.99
33486;BME280;19824;52.098;5.004;2023-03-17T08:24:22;100702.84;;;19.45;45.82
33486;BME280;19824;52.098;5.004;2023-03-17T08:26:59;100699.75;;;19.61;45.23
33486;BME280;19824;52.098;5.004;2023-03-17T08:29:30;100705.03;;;19.94;43.62
33486;BME280;19824;52.098;5.004;2023-03-17T08:32:07;100704.19;;;20.00;43.76
33486;BME280;19824;52.098;5.004;2023-03-17T08:34:38;100705.03;;;20.20;42.47
33486;BME280;19824;52.098;5.004;2023-03-17T08:37:20;100704.22;;;20.26;42.40
33486;BME280;19824;52.098;5.004;2023-03-17T08:39:57;100705.03;;;20.40;42.43
33486;BME280;19824;52.098;5.004;2023-03-17T08:42:27;100703.97;;;20.54;42.32
33486;BME280;19824;52.098;5.004;2023-03-17T08:45:06;100697.69;;;20.72;42.07
33486;BME280;19824;52.098;5.004;2023-03-17T08:47:37;100698.34;;;20.68;41.17
33486;BME280;19824;52.098;5.004;2023-03-17T08:50:18;100696.75;;;20.28;41.88
33486;BME280;19824;52.098;5.004;2023-03-17T08:52:51;100690.69;;;20.26;43.10
33486;BME280;19824;52.098;5.004;2023-03-17T08:55:28;100680.44;;;20.61;42.92
33486;BME280;19824;52.098;5.004;2023-03-17T08:57:59;100675.19;;;20.91;42.54
33486;BME280;19824;52.098;5.004;2023-03-17T09:00:37;100681.50;;;21.23;42.49
33486;BME280;19824;52.098;5.004;2023-03-17T09:03:07;100675.63;;;21.32;41.28
33486;BME280;19824;52.098;5.004;2023-03-17T09:05:44;100677.63;;;21.06;41.64
33486;BME280;19824;52.098;5.004;2023-03-17T09:08:17;100686.59;;;21.00;41.27
33486;BME280;19824;52.098;5.004;2023-03-17T09:10:54;100689.94;;;21.02;42.44
33486;BME280;19824;52.098;5.004;2023-03-17T09:13:31;100693.06;;;20.99;41.40
33486;BME280;19824;52.098;5.004;2023-03-17T09:16:04;100693.53;;;20.83;41.31
33486;BME280;19824;52.098;5.004;2023-03-17T09:18:42;100701.28;;;20.60;42.25
33486;BME280;19824;52.098;5.004;2023-03-17T09:21:13;100698.78;;;20.46;41.82
33486;BME280;19824;52.098;5.004;2023-03-17T09:23:53;100702.13;;;20.54;42.62
33486;BME280;19824;52.098;5.004;2023-03-17T09:26:23;100705.16;;;20.77;41.88
33486;BME280;19824;52.098;5.004;2023-03-17T09:29:01;100706.84;;;20.78;41.92
33486;BME280;19824;52.098;5.004;2023-03-17T09:31:32;100714.13;;;20.77;42.29
33486;BME280;19824;52.098;5.004;2023-03-17T09:34:10;100713.31;;;20.90;42.46
33486;BME280;19824;52.098;5.004;2023-03-17T09:36:40;100708.50;;;20.92;41.67
33486;BME280;19824;52.098;5.004;2023-03-17T09:39:21;100724.16;;;20.90;42.33
33486;BME280;19824;52.098;5.004;2023-03-17T09:42:18;100729.34;;;20.85;41.41
33486;BME280;19824;52.098;5.004;2023-03-17T09:45:09;100716.59;;;21.05;42.29
33486;BME280;19824;52.098;5.004;2023-03-17T09:50:55;100721.03;;;20.67;42.07
33486;BME280;19824;52.098;5.004;2023-03-17T09:53:28;100722.53;;;20.31;43.64
33486;BME280;19824;52.098;5.004;2023-03-17T09:56:13;100729.81;;;20.17;44.04
33486;BME280;19824;52.098;5.004;2023-03-17T09:58:50;100742.91;;;20.20;44.06
33486;BME280;19824;52.098;5.004;2023-03-17T10:01:27;100738.75;;;20.31;43.98
33486;BME280;19824;52.098;5.004;2023-03-17T10:04:04;100737.31;;;20.41;43.64
33486;BME280;19824;52.098;5.004;2023-03-17T10:06:37;100748.72;;;20.69;43.45
33486;BME280;19824;52.098;5.004;2023-03-17T10:09:23;100749.28;;;21.10;42.84
33486;BME280;19824;52.098;5.004;2023-03-17T10:12:07;100757.09;;;21.37;42.41
33486;BME280;19824;52.098;5.004;2023-03-17T10:14:53;100766.28;;;21.80;42.03
33486;BME280;19824;52.098;5.004;2023-03-17T10:17:38;100767.09;;;22.18;41.94
33486;BME280;19824;52.098;5.004;2023-03-17T10:20:20;100767.66;;;22.26;41.13
33486;BME280;19824;52.098;5.004;2023-03-17T10:22:53;100767.91;;;22.49;41.76
33486;BME280;19824;52.098;5.004;2023-03-17T10:25:34;100767.69;;;22.93;41.53
33486;BME280;19824;52.098;5.004;2023-03-17T10:28:22;100768.53;;;23.18;39.98
33486;BME280;19824;52.098;5.004;2023-03-17T10:31:12;100770.84;;;23.50;39.83
33486;BME280;19824;52.098;5.004;2023-03-17T10:33:47;100772.75;;;23.50;40.45
33486;BME280;19824;52.098;5.004;2023-03-17T10:36:37;100789.22;;;22.94;40.48
33486;BME280;19824;52.098;5.004;2023-03-17T10:39:18;100781.22;;;22.57;40.40
33486;BME280;19824;52.098;5.004;2023-03-17T10:41:56;100790.00;;;22.28;41.22
33486;BME280;19824;52.098;5.004;2023-03-17T10:44:45;100774.09;;;22.01;41.53
33486;BME280;19824;52.098;5.004;2023-03-17T10:47:25;100775.44;;;21.85;41.73
33486;BME280;19824;52.098;5.004;2023-03-17T10:50:20;100773.03;;;21.71;42.35
33486;BME280;19824;52.098;5.004;2023-03-17T10:52:57;100763.06;;;21.52;42.20
33486;BME280;19824;52.098;5.004;2023-03-17T10:55:40;100768.41;;;21.21;42.46
33486;BME280;19824;52.098;5.004;2023-03-17T10:58:15;100764.47;;;21.11;43.39
33486;BME280;19824;52.098;5.004;2023-03-17T11:00:58;100765.19;;;20.87;43.86
33486;BME280;19824;52.098;5.004;2023-03-17T11:03:37;100755.38;;;20.86;43.32
33486;BME280;19824;52.098;5.004;2023-03-17T11:06:17;100744.13;;;20.89;43.84
33486;BME280;19824;52.098;5.004;2023-03-17T11:08:51;100739.31;;;20.78;44.11
33486;BME280;19824;52.098;5.004;2023-03-17T11:11:30;100741.63;;;20.68;44.00
33486;BME280;19824;52.098;5.004;2023-03-17T11:14:02;100735.84;;;20.52;44.44
33486;BME280;19824;52.098;5.004;2023-03-17T11:16:52;100733.34;;;20.37;44.71
33486;BME280;19824;52.098;5.004;2023-03-17T11:19:36;100725.88;;;20.26;45.38
33486;BME280;19824;52.098;5.004;2023-03-17T11:22:19;100721.69;;;20.17;45.76
33486;BME280;19824;52.098;5.004;2023-03-17T11:25:01;100725.88;;;20.26;45.58
33486;BME280;19824;52.098;5.004;2023-03-17T11:27:46;100714.63;;;20.49;46.09
33486;BME280;19824;52.098;5.004;2023-03-17T11:30:28;100710.81;;;20.69;45.87
33486;BME280;19824;52.098;5.004;2023-03-17T11:33:24;100710.38;;;20.91;46.16
33486;BME280;19824;52.098;5.004;2023-03-17T11:36:01;100712.59;;;21.14;45.23
33486;BME280;19824;52.098;5.004;2023-03-17T11:38:46;100693.16;;;21.30;44.91
33486;BME280;19824;52.098;5.004;2023-03-17T11:41:49;100718.03;;;21.51;44.48
33486;BME280;19824;52.098;5.004;2023-03-17T11:45:08;100716.53;;;21.68;44.91
33486;BME280;19824;52.098;5.004;2023-03-17T11:48:17;100720.16;;;21.86;44.21
33486;BME280;19824;52.098;5.004;2023-03-17T11:50:56;100725.75;;;21.91;44.04
33486;BME280;19824;52.098;5.004;2023-03-17T11:53:58;100727.94;;;21.76;44.63
33486;BME280;19824;52.098;5.004;2023-03-17T11:56:39;100714.09;;;21.84;43.79
33486;BME280;19824;52.098;5.004;2023-03-17T11:59:24;100706.34;;;21.94;43.70
33486;BME280;19824;52.098;5.004;2023-03-17T12:02:05;100694.22;;;22.21;44.04
33486;BME280;19824;52.098;5.004;2023-03-17T12:04:57;100681.47;;;22.46;43.53
33486;BME280;19824;52.098;5.004;2023-03-17T12:07:34;100682.13;;;22.66;43.27
33486;BME280;19824;52.098;5.004;2023-03-17T12:10:20;100687.81;;;22.40;43.41
33486;BME280;19824;52.098;5.004;2023-03-17T12:12:54;100684.94;;;22.35;44.05
33486;BME280;19824;52.098;5.004;2023-03-17T12:15:36;100683.88;;;22.12;43.75
33486;BME280;19824;52.098;5.004;2023-03-17T12:18:14;100676.00;;;22.04;44.18
33486;BME280;19824;52.098;5.004;2023-03-17T12:20:58;100675.34;;;22.08;43.87
33486;BME280;19824;52.098;5.004;2023-03-17T12:23:35;100667.03;;;22.03;43.35
33486;BME280;19824;52.098;5.004;2023-03-17T12:26:15;100674.94;;;21.80;44.21
33486;BME280;19824;52.098;5.004;2023-03-17T12:28:51;100674.47;;;21.53;44.05
33486;BME280;19824;52.098;5.004;2023-03-17T12:31:34;100677.25;;;21.40;44.64
33486;BME280;19824;52.098;5.004;2023-03-17T12:34:09;100687.59;;;21.12;45.27
33486;BME280;19824;52.098;5.004;2023-03-17T12:36:53;100684.88;;;21.12;45.31
33486;BME280;19824;52.098;5.004;2023-03-17T12:39:29;100701.94;;;21.25;45.91
33486;BME280;19824;52.098;5.004;2023-03-17T12:42:21;100686.91;;;21.23;45.78
33486;BME280;19824;52.098;5.004;2023-03-17T12:45:24;100686.75;;;21.18;46.11
33486;BME280;19824;52.098;5.004;2023-03-17T12:51:37;100687.09;;;20.71;45.94
33486;BME280;19824;52.098;5.004;2023-03-17T12:54:26;100696.06;;;20.52;46.56
33486;BME280;19824;52.098;5.004;2023-03-17T12:57:02;100693.16;;;20.60;46.71
33486;BME280;19824;52.098;5.004;2023-03-17T12:59:43;100693.13;;;20.54;46.44
33486;BME280;19824;52.098;5.004;2023-03-17T13:02:35;100695.47;;;20.44;46.78
33486;BME280;19824;52.098;5.004;2023-03-17T13:05:12;100692.97;;;20.49;47.29
33486;BME280;19824;52.098;5.004;2023-03-17T13:07:52;100679.63;;;20.54;46.63
33486;BME280;19824;52.098;5.004;2023-03-17T13:10:41;100678.41;;;20.43;47.34
33486;BME280;19824;52.098;5.004;2023-03-17T13:13:44;100676.53;;;20.44;47.19
33486;BME280;19824;52.098;5.004;2023-03-17T13:16:31;100673.19;;;20.35;47.04
33486;BME280;19824;52.098;5.004;2023-03-17T13:19:19;100680.06;;;20.44;47.82
33486;BME280;19824;52.098;5.004;2023-03-17T13:22:32;100681.72;;;20.58;47.46
33486;BME280;19824;52.098;5.004;2023-03-17T13:25:30;100689.19;;;20.63;47.71
33486;BME280;19824;52.098;5.004;2023-03-17T13:28:24;100691.88;;;20.82;47.78
33486;BME280;19824;52.098;5.004;2023-03-17T13:31:13;100691.19;;;21.06;47.28
33486;BME280;19824;52.098;5.004;2023-03-17T13:33:44;100695.25;;;21.21;47.06
33486;BME280;19824;52.098;5.004;2023-03-17T13:36:50;100689.28;;;21.06;47.55
33486;BME280;19824;52.098;5.004;2023-03-17T13:40:13;100680.41;;;20.80;47.98
33486;BME280;19824;52.098;5.004;2023-03-17T13:43:07;100677.88;;;20.91;47.93
33486;BME280;19824;52.098;5.004;2023-03-17T13:45:51;100675.34;;;21.03;47.63
33486;BME280;19824;52.098;5.004;2023-03-17T13:48:30;100663.28;;;20.99;47.37
33486;BME280;19824;52.098;5.004;2023-03-17T13:51:17;100663.69;;;20.96;47.87
33486;BME280;19824;52.098;5.004;2023-03-17T13:54:05;100660.13;;;21.08;47.07
33486;BME280;19824;52.098;5.004;2023-03-17T13:56:51;100657.03;;;20.98;47.17
33486;BME280;19824;52.098;5.004;2023-03-17T13:59:26;100663.31;;;20.92;47.90
